« Back
NWS Peachtree City, Ga » Text Product » ATL Terminal Aerodrome Forecast


Printer-friendly Version
Current Version              Previous Versions:   1  2  3  4  5  6  7  8  9  

Terminal Aerodrome Forecast

284
FTUS42 KFFC 020300 AAB
TAFATL
TAF AMD
KATL 020335Z 0204/0306 11007KT P6SM SCT150 BKN250
     FM020700 07006KT 6SM BR BKN012
     FM020900 07005KT 6SM BR OVC009
      TEMPO 0213/0217 5SM -SHRA BR
     FM021700 06006KT P6SM SCT025 BKN035=



USA.gov is the U.S. government's official web portal to all federal, state and local government web resources and services.